Aeroporto :
LOGIN :

Iscrizione | Disclaimer

   EN    FR    IT 

 










Sommario :    VFR   VFR Marginale   IFR   IFR Intensivo   IFR Molto Intensivo
Visibilità : 
Base nubi : 
>= 8 km
>= 3000ft
5 / 8 km
1000 / 3000 ft
1500m / 5 km
500 / 1000 ft
800 / 1500m
200 / 500 ft
< 800m
< 200 ft
Simboli :   Temporali  Nebbia  Neve Forte  Precipitazioni Forti  Vento > 20 kt
SIGMETs :   Varie  Temporali  Ghiacco  Turbolenza  Onda orograficha  Ceneri Vulcaniche






- Altitudine del aeroporto : -11 ft
- Codice IATA : AMS


EHAM - Amsterdam Schiphol

ULTIMO METAR :
  • 291225Z 06007KT 360V110 CAVOK 19/09 Q1028 NOSIG

METARs OBSOLETI :
  • 291155Z 05008KT 350V120 CAVOK 18/09 Q1028 NOSIG
  • 291125Z 05008KT 350V090 CAVOK 18/10 Q1029 NOSIG
  • 291055Z 04009KT 350V080 CAVOK 18/09 Q1029 NOSIG
  • 291025Z 05008KT 010V090 CAVOK 17/09 Q1030 NOSIG
  • 290955Z 05009KT 360V100 CAVOK 17/09 Q1030 NOSIG

TAF TAF EHAM
Valido dal 29 a 12 ore il 30 a 18 ore UTC


291042Z 2912/3018 06010KT CAVOK
BECMG 2914/2916 03014KT
BECMG 2920/2922 07008KT
BECMG 3014/3016 03014KT



MetMap, La meteo Aeronautica in un colpo d'occhio ! - Copyright ORBIFLY Dicembre 2007 - Disclaimer

ORBIFLY MET'MAP TEAM :

Programmazione e sviluppo : Alexandra Zaïnal
Concezione : Baudouin d'Aumeries
Aiuto per la programmazione : Marc-Olivier Méhu
Supporto tecnico e logistico : Manuel Goepfert
Aiuto per la traduzione : Arnaldo La Scala

Contatto : metmap@orbifly.com




FONTI E CREDITI :

   NOAA